sensor_id;sensor_type;location;lat;lon;timestamp;P1;durP1;ratioP1;P2;durP2;ratioP2
26594;SDS011;14238;49.496;8.154;2022-07-23T00:00:29;10.00;;;9.17;;
26594;SDS011;14238;49.496;8.154;2022-07-23T00:02:55;10.27;;;9.37;;
26594;SDS011;14238;49.496;8.154;2022-07-23T00:05:20;11.50;;;10.47;;
26594;SDS011;14238;49.496;8.154;2022-07-23T00:07:46;11.00;;;10.00;;
26594;SDS011;14238;49.496;8.154;2022-07-23T00:10:11;10.53;;;9.73;;
26594;SDS011;14238;49.496;8.154;2022-07-23T00:12:37;11.70;;;10.77;;
26594;SDS011;14238;49.496;8.154;2022-07-23T00:15:04;11.00;;;10.10;;
26594;SDS011;14238;49.496;8.154;2022-07-23T00:17:33;10.53;;;9.73;;
26594;SDS011;14238;49.496;8.154;2022-07-23T00:19:59;11.10;;;10.20;;
26594;SDS011;14238;49.496;8.154;2022-07-23T00:22:25;11.10;;;10.20;;
26594;SDS011;14238;49.496;8.154;2022-07-23T00:24:52;16.40;;;14.80;;
26594;SDS011;14238;49.496;8.154;2022-07-23T00:27:18;11.50;;;10.63;;
26594;SDS011;14238;49.496;8.154;2022-07-23T00:29:43;11.17;;;10.27;;
26594;SDS011;14238;49.496;8.154;2022-07-23T00:32:09;11.10;;;10.30;;
26594;SDS011;14238;49.496;8.154;2022-07-23T00:34:34;11.43;;;10.53;;
26594;SDS011;14238;49.496;8.154;2022-07-23T00:37:00;9.70;;;9.00;;
26594;SDS011;14238;49.496;8.154;2022-07-23T00:39:25;11.47;;;10.47;;
26594;SDS011;14238;49.496;8.154;2022-07-23T00:41:51;10.77;;;9.80;;
26594;SDS011;14238;49.496;8.154;2022-07-23T00:44:24;11.13;;;10.17;;
26594;SDS011;14238;49.496;8.154;2022-07-23T00:46:51;10.30;;;9.50;;
26594;SDS011;14238;49.496;8.154;2022-07-23T00:49:20;10.83;;;9.90;;
26594;SDS011;14238;49.496;8.154;2022-07-23T00:51:47;10.17;;;9.30;;
26594;SDS011;14238;49.496;8.154;2022-07-23T00:54:14;10.70;;;9.90;;
26594;SDS011;14238;49.496;8.154;2022-07-23T00:56:41;11.40;;;10.40;;
26594;SDS011;14238;49.496;8.154;2022-07-23T00:59:08;10.63;;;9.83;;
26594;SDS011;14238;49.496;8.154;2022-07-23T01:01:34;10.37;;;9.67;;
26594;SDS011;14238;49.496;8.154;2022-07-23T01:04:00;12.33;;;9.63;;
26594;SDS011;14238;49.496;8.154;2022-07-23T01:06:25;10.17;;;9.30;;
26594;SDS011;14238;49.496;8.154;2022-07-23T01:08:51;10.30;;;9.50;;
26594;SDS011;14238;49.496;8.154;2022-07-23T01:11:18;10.33;;;9.53;;
26594;SDS011;14238;49.496;8.154;2022-07-23T01:13:44;11.20;;;10.10;;
26594;SDS011;14238;49.496;8.154;2022-07-23T01:16:10;9.67;;;8.90;;
26594;SDS011;14238;49.496;8.154;2022-07-23T01:18:36;10.33;;;9.40;;
26594;SDS011;14238;49.496;8.154;2022-07-23T01:21:02;10.20;;;9.40;;
26594;SDS011;14238;49.496;8.154;2022-07-23T01:23:27;11.00;;;10.10;;
26594;SDS011;14238;49.496;8.154;2022-07-23T01:25:53;10.13;;;9.33;;
26594;SDS011;14238;49.496;8.154;2022-07-23T01:28:20;10.10;;;9.40;;
26594;SDS011;14238;49.496;8.154;2022-07-23T01:30:46;9.90;;;9.00;;
26594;SDS011;14238;49.496;8.154;2022-07-23T01:33:12;10.60;;;9.70;;
26594;SDS011;14238;49.496;8.154;2022-07-23T01:35:38;9.50;;;8.80;;
26594;SDS011;14238;49.496;8.154;2022-07-23T01:38:04;9.73;;;8.80;;
26594;SDS011;14238;49.496;8.154;2022-07-23T01:40:29;9.97;;;9.27;;
26594;SDS011;14238;49.496;8.154;2022-07-23T01:42:55;10.40;;;9.67;;
26594;SDS011;14238;49.496;8.154;2022-07-23T01:45:20;10.50;;;9.80;;
26594;SDS011;14238;49.496;8.154;2022-07-23T01:47:46;9.83;;;9.03;;
26594;SDS011;14238;49.496;8.154;2022-07-23T01:50:12;9.93;;;9.03;;
26594;SDS011;14238;49.496;8.154;2022-07-23T01:52:38;10.07;;;9.37;;
26594;SDS011;14238;49.496;8.154;2022-07-23T01:55:03;9.77;;;9.00;;
26594;SDS011;14238;49.496;8.154;2022-07-23T01:57:30;10.73;;;9.13;;
26594;SDS011;14238;49.496;8.154;2022-07-23T01:59:56;10.73;;;9.93;;
26594;SDS011;14238;49.496;8.154;2022-07-23T02:02:22;10.63;;;9.83;;
26594;SDS011;14238;49.496;8.154;2022-07-23T02:04:47;11.37;;;10.57;;
26594;SDS011;14238;49.496;8.154;2022-07-23T02:07:13;10.80;;;9.80;;
26594;SDS011;14238;49.496;8.154;2022-07-23T02:09:38;10.80;;;10.00;;
26594;SDS011;14238;49.496;8.154;2022-07-23T02:12:04;11.00;;;10.20;;
26594;SDS011;14238;49.496;8.154;2022-07-23T02:14:30;10.53;;;9.73;;
26594;SDS011;14238;49.496;8.154;2022-07-23T02:16:55;11.43;;;10.53;;
26594;SDS011;14238;49.496;8.154;2022-07-23T02:19:21;11.30;;;10.30;;
26594;SDS011;14238;49.496;8.154;2022-07-23T02:21:47;10.70;;;9.90;;
26594;SDS011;14238;49.496;8.154;2022-07-23T02:24:13;11.07;;;10.17;;
26594;SDS011;14238;49.496;8.154;2022-07-23T02:26:38;10.80;;;9.87;;
26594;SDS011;14238;49.496;8.154;2022-07-23T02:29:04;11.50;;;10.60;;
26594;SDS011;14238;49.496;8.154;2022-07-23T02:31:30;11.30;;;10.50;;
26594;SDS011;14238;49.496;8.154;2022-07-23T02:33:56;10.23;;;9.47;;
26594;SDS011;14238;49.496;8.154;2022-07-23T02:36:21;9.67;;;9.00;;
26594;SDS011;14238;49.496;8.154;2022-07-23T02:38:47;10.40;;;9.40;;
26594;SDS011;14238;49.496;8.154;2022-07-23T02:41:12;10.70;;;9.90;;
26594;SDS011;14238;49.496;8.154;2022-07-23T02:43:38;10.23;;;9.43;;
26594;SDS011;14238;49.496;8.154;2022-07-23T02:46:04;10.10;;;9.20;;
26594;SDS011;14238;49.496;8.154;2022-07-23T02:48:29;10.30;;;9.50;;
26594;SDS011;14238;49.496;8.154;2022-07-23T02:50:55;11.20;;;10.33;;
26594;SDS011;14238;49.496;8.154;2022-07-23T02:53:21;9.90;;;9.20;;
26594;SDS011;14238;49.496;8.154;2022-07-23T02:55:47;10.03;;;9.10;;
26594;SDS011;14238;49.496;8.154;2022-07-23T02:58:13;9.50;;;8.80;;
26594;SDS011;14238;49.496;8.154;2022-07-23T03:00:39;10.20;;;9.40;;
26594;SDS011;14238;49.496;8.154;2022-07-23T03:03:04;10.40;;;9.37;;
26594;SDS011;14238;49.496;8.154;2022-07-23T03:05:30;9.57;;;8.87;;
26594;SDS011;14238;49.496;8.154;2022-07-23T03:07:55;9.60;;;8.80;;
26594;SDS011;14238;49.496;8.154;2022-07-23T03:10:21;9.23;;;8.43;;
26594;SDS011;14238;49.496;8.154;2022-07-23T03:12:46;9.40;;;8.70;;
26594;SDS011;14238;49.496;8.154;2022-07-23T03:15:12;10.00;;;9.10;;
26594;SDS011;14238;49.496;8.154;2022-07-23T03:17:37;9.87;;;9.13;;
26594;SDS011;14238;49.496;8.154;2022-07-23T03:20:03;9.93;;;9.13;;
26594;SDS011;14238;49.496;8.154;2022-07-23T03:22:29;9.17;;;8.47;;
26594;SDS011;14238;49.496;8.154;2022-07-23T03:24:54;9.53;;;8.83;;
26594;SDS011;14238;49.496;8.154;2022-07-23T03:27:20;9.50;;;8.70;;
26594;SDS011;14238;49.496;8.154;2022-07-23T03:29:46;10.70;;;9.70;;
26594;SDS011;14238;49.496;8.154;2022-07-23T03:32:12;10.77;;;9.77;;
26594;SDS011;14238;49.496;8.154;2022-07-23T03:34:37;8.90;;;8.40;;
26594;SDS011;14238;49.496;8.154;2022-07-23T03:37:03;10.90;;;10.10;;
26594;SDS011;14238;49.496;8.154;2022-07-23T03:39:29;10.80;;;9.80;;
26594;SDS011;14238;49.496;8.154;2022-07-23T03:41:54;9.47;;;8.77;;
26594;SDS011;14238;49.496;8.154;2022-07-23T03:44:20;9.90;;;9.20;;
26594;SDS011;14238;49.496;8.154;2022-07-23T03:46:45;10.97;;;9.93;;
26594;SDS011;14238;49.496;8.154;2022-07-23T03:49:11;9.77;;;9.10;;
26594;SDS011;14238;49.496;8.154;2022-07-23T03:51:36;11.53;;;10.70;;
26594;SDS011;14238;49.496;8.154;2022-07-23T03:54:02;11.00;;;10.13;;
26594;SDS011;14238;49.496;8.154;2022-07-23T03:56:28;12.57;;;11.43;;
26594;SDS011;14238;49.496;8.154;2022-07-23T03:58:53;11.20;;;10.30;;
26594;SDS011;14238;49.496;8.154;2022-07-23T04:01:19;11.40;;;10.40;;
26594;SDS011;14238;49.496;8.154;2022-07-23T04:03:44;11.93;;;10.90;;
26594;SDS011;14238;49.496;8.154;2022-07-23T04:06:11;10.77;;;10.07;;
26594;SDS011;14238;49.496;8.154;2022-07-23T04:08:38;11.90;;;10.80;;
26594;SDS011;14238;49.496;8.154;2022-07-23T04:11:03;11.87;;;10.97;;
26594;SDS011;14238;49.496;8.154;2022-07-23T04:13:29;12.20;;;11.20;;
26594;SDS011;14238;49.496;8.154;2022-07-23T04:15:55;11.90;;;10.90;;
26594;SDS011;14238;49.496;8.154;2022-07-23T04:18:20;11.17;;;10.30;;
26594;SDS011;14238;49.496;8.154;2022-07-23T04:20:48;11.97;;;11.07;;
26594;SDS011;14238;49.496;8.154;2022-07-23T04:23:17;12.90;;;11.70;;
26594;SDS011;14238;49.496;8.154;2022-07-23T04:25:43;10.67;;;9.87;;
26594;SDS011;14238;49.496;8.154;2022-07-23T04:28:08;12.67;;;11.63;;
26594;SDS011;14238;49.496;8.154;2022-07-23T04:30:34;11.80;;;10.90;;
26594;SDS011;14238;49.496;8.154;2022-07-23T04:33:00;11.00;;;10.20;;
26594;SDS011;14238;49.496;8.154;2022-07-23T04:35:25;12.93;;;11.73;;
26594;SDS011;14238;49.496;8.154;2022-07-23T04:37:51;12.60;;;11.60;;
26594;SDS011;14238;49.496;8.154;2022-07-23T04:40:17;12.23;;;11.20;;
26594;SDS011;14238;49.496;8.154;2022-07-23T04:42:42;12.47;;;11.37;;
26594;SDS011;14238;49.496;8.154;2022-07-23T04:45:08;12.43;;;11.53;;
26594;SDS011;14238;49.496;8.154;2022-07-23T04:47:34;12.93;;;11.93;;
26594;SDS011;14238;49.496;8.154;2022-07-23T04:49:59;12.17;;;11.23;;
26594;SDS011;14238;49.496;8.154;2022-07-23T04:52:25;13.10;;;11.90;;
26594;SDS011;14238;49.496;8.154;2022-07-23T04:54:50;13.23;;;12.13;;
26594;SDS011;14238;49.496;8.154;2022-07-23T04:57:16;12.10;;;11.10;;
26594;SDS011;14238;49.496;8.154;2022-07-23T04:59:41;12.87;;;11.87;;
26594;SDS011;14238;49.496;8.154;2022-07-23T05:02:07;13.73;;;12.53;;
26594;SDS011;14238;49.496;8.154;2022-07-23T05:04:32;13.03;;;12.03;;
26594;SDS011;14238;49.496;8.154;2022-07-23T05:06:58;12.40;;;11.40;;
26594;SDS011;14238;49.496;8.154;2022-07-23T05:09:24;13.57;;;12.27;;
26594;SDS011;14238;49.496;8.154;2022-07-23T05:11:50;12.20;;;11.20;;
26594;SDS011;14238;49.496;8.154;2022-07-23T05:14:15;12.93;;;11.83;;
26594;SDS011;14238;49.496;8.154;2022-07-23T05:16:41;12.03;;;10.90;;
26594;SDS011;14238;49.496;8.154;2022-07-23T05:19:06;13.00;;;12.00;;
26594;SDS011;14238;49.496;8.154;2022-07-23T05:21:32;12.50;;;11.30;;
26594;SDS011;14238;49.496;8.154;2022-07-23T05:23:58;12.60;;;11.70;;
26594;SDS011;14238;49.496;8.154;2022-07-23T05:26:24;12.57;;;11.50;;
26594;SDS011;14238;49.496;8.154;2022-07-23T05:28:50;11.77;;;10.90;;
26594;SDS011;14238;49.496;8.154;2022-07-23T05:31:16;12.70;;;11.60;;
26594;SDS011;14238;49.496;8.154;2022-07-23T05:33:42;12.37;;;11.40;;
26594;SDS011;14238;49.496;8.154;2022-07-23T05:36:07;12.10;;;11.20;;
26594;SDS011;14238;49.496;8.154;2022-07-23T05:38:33;14.07;;;12.97;;
26594;SDS011;14238;49.496;8.154;2022-07-23T05:40:59;13.17;;;12.07;;
26594;SDS011;14238;49.496;8.154;2022-07-23T05:43:25;15.10;;;12.03;;
26594;SDS011;14238;49.496;8.154;2022-07-23T05:45:50;12.20;;;11.20;;
26594;SDS011;14238;49.496;8.154;2022-07-23T05:48:16;12.90;;;11.90;;
26594;SDS011;14238;49.496;8.154;2022-07-23T05:50:41;13.00;;;11.90;;
26594;SDS011;14238;49.496;8.154;2022-07-23T05:53:07;13.23;;;12.23;;
26594;SDS011;14238;49.496;8.154;2022-07-23T05:55:33;13.30;;;12.30;;
26594;SDS011;14238;49.496;8.154;2022-07-23T05:57:59;13.97;;;12.67;;
26594;SDS011;14238;49.496;8.154;2022-07-23T06:00:25;11.80;;;10.80;;
26594;SDS011;14238;49.496;8.154;2022-07-23T06:02:52;12.40;;;11.50;;
26594;SDS011;14238;49.496;8.154;2022-07-23T06:05:18;12.07;;;11.07;;
26594;SDS011;14238;49.496;8.154;2022-07-23T06:07:43;12.67;;;11.67;;
26594;SDS011;14238;49.496;8.154;2022-07-23T06:10:09;11.83;;;10.70;;
26594;SDS011;14238;49.496;8.154;2022-07-23T06:12:34;13.03;;;11.93;;
26594;SDS011;14238;49.496;8.154;2022-07-23T06:15:00;11.90;;;10.90;;
26594;SDS011;14238;49.496;8.154;2022-07-23T06:17:26;12.40;;;11.40;;
26594;SDS011;14238;49.496;8.154;2022-07-23T06:19:52;12.27;;;11.07;;
26594;SDS011;14238;49.496;8.154;2022-07-23T06:22:18;12.30;;;11.40;;
26594;SDS011;14238;49.496;8.154;2022-07-23T06:24:44;13.20;;;12.00;;
26594;SDS011;14238;49.496;8.154;2022-07-23T06:27:09;12.60;;;11.60;;
26594;SDS011;14238;49.496;8.154;2022-07-23T06:29:35;12.23;;;11.23;;
26594;SDS011;14238;49.496;8.154;2022-07-23T06:32:00;13.00;;;11.90;;
26594;SDS011;14238;49.496;8.154;2022-07-23T06:34:26;12.07;;;10.97;;
26594;SDS011;14238;49.496;8.154;2022-07-23T06:36:51;12.03;;;11.13;;
26594;SDS011;14238;49.496;8.154;2022-07-23T06:39:17;11.60;;;10.70;;
26594;SDS011;14238;49.496;8.154;2022-07-23T06:41:42;12.33;;;11.33;;
26594;SDS011;14238;49.496;8.154;2022-07-23T06:44:08;11.77;;;10.77;;
26594;SDS011;14238;49.496;8.154;2022-07-23T06:46:33;11.97;;;11.07;;
26594;SDS011;14238;49.496;8.154;2022-07-23T06:48:59;11.73;;;10.50;;
26594;SDS011;14238;49.496;8.154;2022-07-23T06:51:25;12.13;;;11.03;;
26594;SDS011;14238;49.496;8.154;2022-07-23T06:53:50;11.67;;;10.77;;
26594;SDS011;14238;49.496;8.154;2022-07-23T06:56:16;11.40;;;10.57;;
26594;SDS011;14238;49.496;8.154;2022-07-23T06:58:41;12.17;;;11.30;;
26594;SDS011;14238;49.496;8.154;2022-07-23T07:01:07;12.17;;;11.27;;
26594;SDS011;14238;49.496;8.154;2022-07-23T07:03:33;12.40;;;11.50;;
26594;SDS011;14238;49.496;8.154;2022-07-23T07:05:58;11.40;;;10.47;;
26594;SDS011;14238;49.496;8.154;2022-07-23T07:08:24;11.80;;;10.80;;
26594;SDS011;14238;49.496;8.154;2022-07-23T07:10:49;11.13;;;10.33;;
26594;SDS011;14238;49.496;8.154;2022-07-23T07:13:15;13.47;;;12.47;;
26594;SDS011;14238;49.496;8.154;2022-07-23T07:15:41;11.93;;;11.03;;
26594;SDS011;14238;49.496;8.154;2022-07-23T07:18:06;12.20;;;11.00;;
26594;SDS011;14238;49.496;8.154;2022-07-23T07:20:32;11.40;;;10.50;;
26594;SDS011;14238;49.496;8.154;2022-07-23T07:22:58;11.77;;;10.80;;
26594;SDS011;14238;49.496;8.154;2022-07-23T07:25:23;12.30;;;11.40;;
26594;SDS011;14238;49.496;8.154;2022-07-23T07:27:49;12.10;;;11.20;;
26594;SDS011;14238;49.496;8.154;2022-07-23T07:30:14;12.73;;;11.60;;
26594;SDS011;14238;49.496;8.154;2022-07-23T07:32:40;12.80;;;11.87;;
26594;SDS011;14238;49.496;8.154;2022-07-23T07:35:06;12.40;;;11.40;;
26594;SDS011;14238;49.496;8.154;2022-07-23T07:37:32;12.17;;;11.17;;
26594;SDS011;14238;49.496;8.154;2022-07-23T07:39:57;12.43;;;11.17;;
26594;SDS011;14238;49.496;8.154;2022-07-23T07:42:23;13.47;;;12.13;;
26594;SDS011;14238;49.496;8.154;2022-07-23T07:44:48;12.33;;;11.30;;
26594;SDS011;14238;49.496;8.154;2022-07-23T07:47:14;12.67;;;11.57;;
26594;SDS011;14238;49.496;8.154;2022-07-23T07:49:40;13.00;;;12.00;;
26594;SDS011;14238;49.496;8.154;2022-07-23T07:52:07;13.27;;;12.17;;
26594;SDS011;14238;49.496;8.154;2022-07-23T07:54:33;12.07;;;11.07;;
26594;SDS011;14238;49.496;8.154;2022-07-23T07:56:58;12.87;;;11.87;;
26594;SDS011;14238;49.496;8.154;2022-07-23T07:59:24;12.83;;;11.63;;
26594;SDS011;14238;49.496;8.154;2022-07-23T08:01:50;11.63;;;10.70;;
26594;SDS011;14238;49.496;8.154;2022-07-23T08:04:16;11.80;;;10.97;;
26594;SDS011;14238;49.496;8.154;2022-07-23T08:06:41;12.40;;;11.27;;
26594;SDS011;14238;49.496;8.154;2022-07-23T08:09:07;11.10;;;10.20;;
26594;SDS011;14238;49.496;8.154;2022-07-23T08:11:32;12.40;;;11.40;;
26594;SDS011;14238;49.496;8.154;2022-07-23T08:13:58;13.00;;;12.00;;
26594;SDS011;14238;49.496;8.154;2022-07-23T08:16:23;12.00;;;11.00;;
26594;SDS011;14238;49.496;8.154;2022-07-23T08:18:49;12.73;;;11.83;;
26594;SDS011;14238;49.496;8.154;2022-07-23T08:21:14;12.30;;;11.43;;
26594;SDS011;14238;49.496;8.154;2022-07-23T08:23:40;11.93;;;11.03;;
26594;SDS011;14238;49.496;8.154;2022-07-23T08:26:05;13.13;;;11.97;;
26594;SDS011;14238;49.496;8.154;2022-07-23T08:28:31;12.33;;;11.40;;
26594;SDS011;14238;49.496;8.154;2022-07-23T08:30:58;12.80;;;11.57;;
26594;SDS011;14238;49.496;8.154;2022-07-23T08:33:24;12.37;;;11.37;;
26594;SDS011;14238;49.496;8.154;2022-07-23T08:35:50;11.37;;;10.47;;
26594;SDS011;14238;49.496;8.154;2022-07-23T08:38:18;11.73;;;10.77;;
26594;SDS011;14238;49.496;8.154;2022-07-23T08:40:46;11.43;;;10.47;;
26594;SDS011;14238;49.496;8.154;2022-07-23T08:43:15;12.67;;;11.57;;
26594;SDS011;14238;49.496;8.154;2022-07-23T08:45:44;11.67;;;10.87;;
26594;SDS011;14238;49.496;8.154;2022-07-23T08:48:13;11.93;;;11.03;;
26594;SDS011;14238;49.496;8.154;2022-07-23T08:50:45;12.07;;;11.27;;
26594;SDS011;14238;49.496;8.154;2022-07-23T08:53:13;12.43;;;11.43;;
26594;SDS011;14238;49.496;8.154;2022-07-23T08:55:39;12.33;;;11.33;;
26594;SDS011;14238;49.496;8.154;2022-07-23T08:58:07;11.03;;;10.20;;
26594;SDS011;14238;49.496;8.154;2022-07-23T09:00:34;12.07;;;11.17;;
26594;SDS011;14238;49.496;8.154;2022-07-23T09:02:59;12.17;;;11.30;;
26594;SDS011;14238;49.496;8.154;2022-07-23T09:05:25;11.60;;;10.70;;
26594;SDS011;14238;49.496;8.154;2022-07-23T09:13:31;12.73;;;11.83;;
26594;SDS011;14238;49.496;8.154;2022-07-23T09:16:08;11.23;;;10.33;;
26594;SDS011;14238;49.496;8.154;2022-07-23T09:18:39;12.53;;;11.43;;
26594;SDS011;14238;49.496;8.154;2022-07-23T09:21:20;13.20;;;12.20;;
26594;SDS011;14238;49.496;8.154;2022-07-23T09:23:57;12.73;;;11.83;;
26594;SDS011;14238;49.496;8.154;2022-07-23T09:26:38;11.50;;;10.70;;
26594;SDS011;14238;49.496;8.154;2022-07-23T09:29:11;11.43;;;10.53;;
26594;SDS011;14238;49.496;8.154;2022-07-23T09:31:46;11.60;;;10.57;;
26594;SDS011;14238;49.496;8.154;2022-07-23T09:36:45;10.97;;;10.03;;
26594;SDS011;14238;49.496;8.154;2022-07-23T09:39:13;11.80;;;10.90;;
26594;SDS011;14238;49.496;8.154;2022-07-23T09:41:40;12.57;;;11.67;;
26594;SDS011;14238;49.496;8.154;2022-07-23T09:44:13;11.17;;;10.37;;
26594;SDS011;14238;49.496;8.154;2022-07-23T09:46:47;11.30;;;10.50;;
26594;SDS011;14238;49.496;8.154;2022-07-23T09:52:00;10.90;;;10.10;;
26594;SDS011;14238;49.496;8.154;2022-07-23T09:57:12;11.27;;;10.47;;
26594;SDS011;14238;49.496;8.154;2022-07-23T09:59:39;11.10;;;10.27;;
26594;SDS011;14238;49.496;8.154;2022-07-23T10:02:07;12.07;;;10.90;;
26594;SDS011;14238;49.496;8.154;2022-07-23T10:04:34;11.10;;;10.20;;
26594;SDS011;14238;49.496;8.154;2022-07-23T10:07:02;10.93;;;9.90;;
26594;SDS011;14238;49.496;8.154;2022-07-23T10:09:33;9.67;;;9.07;;
26594;SDS011;14238;49.496;8.154;2022-07-23T10:12:01;10.37;;;9.67;;
26594;SDS011;14238;49.496;8.154;2022-07-23T10:14:37;10.10;;;9.27;;
26594;SDS011;14238;49.496;8.154;2022-07-23T10:17:04;9.57;;;8.87;;
26594;SDS011;14238;49.496;8.154;2022-07-23T10:19:30;10.00;;;9.30;;
26594;SDS011;14238;49.496;8.154;2022-07-23T10:30:17;10.53;;;9.70;;
26594;SDS011;14238;49.496;8.154;2022-07-23T10:35:50;10.30;;;9.50;;
26594;SDS011;14238;49.496;8.154;2022-07-23T10:41:03;9.90;;;9.20;;
26594;SDS011;14238;49.496;8.154;2022-07-23T10:43:29;10.77;;;9.73;;
26594;SDS011;14238;49.496;8.154;2022-07-23T10:45:56;9.30;;;8.60;;
26594;SDS011;14238;49.496;8.154;2022-07-23T10:48:41;9.87;;;9.17;;
26594;SDS011;14238;49.496;8.154;2022-07-23T10:56:16;10.10;;;9.20;;
26594;SDS011;14238;49.496;8.154;2022-07-23T10:59:02;10.33;;;9.67;;
26594;SDS011;14238;49.496;8.154;2022-07-23T11:04:01;10.77;;;10.07;;
26594;SDS011;14238;49.496;8.154;2022-07-23T11:09:25;9.67;;;9.07;;
26594;SDS011;14238;49.496;8.154;2022-07-23T11:15:05;10.70;;;10.00;;
26594;SDS011;14238;49.496;8.154;2022-07-23T11:17:36;10.30;;;9.60;;
26594;SDS011;14238;49.496;8.154;2022-07-23T11:20:23;9.87;;;9.27;;
26594;SDS011;14238;49.496;8.154;2022-07-23T11:22:50;9.87;;;9.27;;
26594;SDS011;14238;49.496;8.154;2022-07-23T11:27:47;11.17;;;10.37;;
26594;SDS011;14238;49.496;8.154;2022-07-23T11:32:52;11.27;;;10.47;;
26594;SDS011;14238;49.496;8.154;2022-07-23T11:35:39;11.00;;;10.00;;
26594;SDS011;14238;49.496;8.154;2022-07-23T11:38:12;11.57;;;10.47;;
26594;SDS011;14238;49.496;8.154;2022-07-23T11:40:40;10.80;;;10.00;;
26594;SDS011;14238;49.496;8.154;2022-07-23T11:43:08;10.80;;;10.10;;
26594;SDS011;14238;49.496;8.154;2022-07-23T11:45:37;11.70;;;10.80;;
26594;SDS011;14238;49.496;8.154;2022-07-23T11:48:09;11.33;;;10.43;;
26594;SDS011;14238;49.496;8.154;2022-07-23T11:50:46;12.37;;;11.27;;
26594;SDS011;14238;49.496;8.154;2022-07-23T11:53:12;11.90;;;11.10;;
26594;SDS011;14238;49.496;8.154;2022-07-23T11:55:37;12.70;;;11.70;;
26594;SDS011;14238;49.496;8.154;2022-07-23T11:58:03;12.40;;;11.43;;
26594;SDS011;14238;49.496;8.154;2022-07-23T12:00:30;12.33;;;11.43;;
26594;SDS011;14238;49.496;8.154;2022-07-23T12:03:00;12.73;;;11.63;;
26594;SDS011;14238;49.496;8.154;2022-07-23T12:07:57;14.10;;;13.10;;
26594;SDS011;14238;49.496;8.154;2022-07-23T12:10:25;14.10;;;13.20;;
26594;SDS011;14238;49.496;8.154;2022-07-23T12:12:54;14.00;;;12.80;;
26594;SDS011;14238;49.496;8.154;2022-07-23T12:15:29;12.97;;;12.00;;
26594;SDS011;14238;49.496;8.154;2022-07-23T12:17:58;11.73;;;10.83;;
26594;SDS011;14238;49.496;8.154;2022-07-23T12:20:26;9.97;;;9.37;;
26594;SDS011;14238;49.496;8.154;2022-07-23T12:23:01;11.43;;;10.70;;
26594;SDS011;14238;49.496;8.154;2022-07-23T12:25:30;11.23;;;10.40;;
26594;SDS011;14238;49.496;8.154;2022-07-23T12:28:07;10.47;;;9.73;;
26594;SDS011;14238;49.496;8.154;2022-07-23T12:30:39;11.10;;;10.30;;
26594;SDS011;14238;49.496;8.154;2022-07-23T12:33:11;10.30;;;9.60;;
26594;SDS011;14238;49.496;8.154;2022-07-23T12:35:40;11.00;;;10.10;;
26594;SDS011;14238;49.496;8.154;2022-07-23T12:38:09;9.70;;;8.93;;
26594;SDS011;14238;49.496;8.154;2022-07-23T12:40:47;10.13;;;9.43;;
26594;SDS011;14238;49.496;8.154;2022-07-23T12:43:27;10.63;;;9.97;;
26594;SDS011;14238;49.496;8.154;2022-07-23T12:51:00;10.20;;;9.50;;
26594;SDS011;14238;49.496;8.154;2022-07-23T12:53:28;11.30;;;10.40;;
26594;SDS011;14238;49.496;8.154;2022-07-23T12:56:04;9.90;;;9.10;;
26594;SDS011;14238;49.496;8.154;2022-07-23T12:59:31;10.10;;;9.40;;
26594;SDS011;14238;49.496;8.154;2022-07-23T13:01:28;10.17;;;9.47;;
26594;SDS011;14238;49.496;8.154;2022-07-23T13:04:18;9.97;;;9.37;;
26594;SDS011;14238;49.496;8.154;2022-07-23T13:06:46;10.07;;;9.37;;
26594;SDS011;14238;49.496;8.154;2022-07-23T13:09:15;9.90;;;9.30;;
26594;SDS011;14238;49.496;8.154;2022-07-23T13:11:43;9.63;;;9.07;;
26594;SDS011;14238;49.496;8.154;2022-07-23T13:14:10;11.33;;;9.40;;
26594;SDS011;14238;49.496;8.154;2022-07-23T13:16:37;10.27;;;9.60;;
26594;SDS011;14238;49.496;8.154;2022-07-23T13:19:03;11.77;;;10.87;;
26594;SDS011;14238;49.496;8.154;2022-07-23T13:21:29;11.07;;;10.27;;
26594;SDS011;14238;49.496;8.154;2022-07-23T13:23:55;11.23;;;10.30;;
26594;SDS011;14238;49.496;8.154;2022-07-23T13:26:21;11.07;;;10.20;;
26594;SDS011;14238;49.496;8.154;2022-07-23T13:28:47;10.77;;;9.83;;
26594;SDS011;14238;49.496;8.154;2022-07-23T13:31:13;9.57;;;8.87;;
26594;SDS011;14238;49.496;8.154;2022-07-23T13:33:38;10.50;;;9.80;;
26594;SDS011;14238;49.496;8.154;2022-07-23T13:36:04;10.00;;;9.20;;
26594;SDS011;14238;49.496;8.154;2022-07-23T13:38:30;9.50;;;8.80;;
26594;SDS011;14238;49.496;8.154;2022-07-23T13:40:56;10.20;;;9.50;;
26594;SDS011;14238;49.496;8.154;2022-07-23T13:43:22;10.63;;;9.60;;
26594;SDS011;14238;49.496;8.154;2022-07-23T13:45:49;9.43;;;8.77;;
26594;SDS011;14238;49.496;8.154;2022-07-23T13:48:15;10.87;;;10.07;;
26594;SDS011;14238;49.496;8.154;2022-07-23T13:50:42;10.37;;;9.70;;
26594;SDS011;14238;49.496;8.154;2022-07-23T13:53:11;9.60;;;8.93;;
26594;SDS011;14238;49.496;8.154;2022-07-23T13:55:39;10.40;;;9.70;;
26594;SDS011;14238;49.496;8.154;2022-07-23T13:58:05;9.20;;;8.60;;
26594;SDS011;14238;49.496;8.154;2022-07-23T14:00:32;10.33;;;9.63;;
26594;SDS011;14238;49.496;8.154;2022-07-23T14:02:59;10.17;;;9.27;;
26594;SDS011;14238;49.496;8.154;2022-07-23T14:05:24;9.43;;;8.80;;
26594;SDS011;14238;49.496;8.154;2022-07-23T14:07:50;9.40;;;8.60;;
26594;SDS011;14238;49.496;8.154;2022-07-23T14:10:17;9.50;;;8.90;;
26594;SDS011;14238;49.496;8.154;2022-07-23T14:12:45;10.37;;;9.57;;
26594;SDS011;14238;49.496;8.154;2022-07-23T14:15:11;10.07;;;9.37;;
26594;SDS011;14238;49.496;8.154;2022-07-23T14:17:38;10.70;;;10.00;;
26594;SDS011;14238;49.496;8.154;2022-07-23T14:20:05;10.00;;;9.20;;
26594;SDS011;14238;49.496;8.154;2022-07-23T14:22:31;10.07;;;9.37;;
26594;SDS011;14238;49.496;8.154;2022-07-23T14:24:57;10.57;;;9.67;;
26594;SDS011;14238;49.496;8.154;2022-07-23T14:27:23;10.40;;;9.60;;
26594;SDS011;14238;49.496;8.154;2022-07-23T14:29:50;10.43;;;9.53;;
26594;SDS011;14238;49.496;8.154;2022-07-23T14:32:16;10.13;;;9.40;;
26594;SDS011;14238;49.496;8.154;2022-07-23T14:34:41;10.10;;;9.30;;
26594;SDS011;14238;49.496;8.154;2022-07-23T14:37:07;10.33;;;9.50;;
26594;SDS011;14238;49.496;8.154;2022-07-23T14:39:35;10.20;;;9.40;;
26594;SDS011;14238;49.496;8.154;2022-07-23T14:42:00;10.33;;;9.63;;
26594;SDS011;14238;49.496;8.154;2022-07-23T14:44:26;10.37;;;9.47;;
26594;SDS011;14238;49.496;8.154;2022-07-23T14:46:52;10.43;;;9.53;;
26594;SDS011;14238;49.496;8.154;2022-07-23T14:49:18;10.63;;;9.83;;
26594;SDS011;14238;49.496;8.154;2022-07-23T14:51:43;10.37;;;9.60;;
26594;SDS011;14238;49.496;8.154;2022-07-23T14:54:09;10.40;;;9.50;;
26594;SDS011;14238;49.496;8.154;2022-07-23T14:56:35;9.57;;;8.93;;
26594;SDS011;14238;49.496;8.154;2022-07-23T14:59:01;9.80;;;8.90;;
26594;SDS011;14238;49.496;8.154;2022-07-23T15:01:30;10.37;;;9.63;;
26594;SDS011;14238;49.496;8.154;2022-07-23T15:03:55;10.27;;;9.57;;
26594;SDS011;14238;49.496;8.154;2022-07-23T15:06:21;9.63;;;9.03;;
26594;SDS011;14238;49.496;8.154;2022-07-23T15:08:46;9.10;;;8.50;;
26594;SDS011;14238;49.496;8.154;2022-07-23T15:11:12;10.27;;;9.57;;
26594;SDS011;14238;49.496;8.154;2022-07-23T15:13:38;9.60;;;8.90;;
26594;SDS011;14238;49.496;8.154;2022-07-23T15:16:04;9.20;;;8.60;;
26594;SDS011;14238;49.496;8.154;2022-07-23T15:18:30;10.30;;;9.63;;
26594;SDS011;14238;49.496;8.154;2022-07-23T15:20:56;10.83;;;9.93;;